sensor_id;sensor_type;location;lat;lon;timestamp;P1;durP1;ratioP1;P2;durP2;ratioP2
74687;SDS011;63216;49.544;8.442;2022-10-16T00:00:43;10.25;;;7.68;;
74687;SDS011;63216;49.544;8.442;2022-10-16T00:03:10;11.82;;;7.55;;
74687;SDS011;63216;49.544;8.442;2022-10-16T00:05:40;10.05;;;7.18;;
74687;SDS011;63216;49.544;8.442;2022-10-16T00:08:07;8.88;;;6.95;;
74687;SDS011;63216;49.544;8.442;2022-10-16T00:10:34;10.48;;;6.70;;
74687;SDS011;63216;49.544;8.442;2022-10-16T00:13:00;10.88;;;7.20;;
74687;SDS011;63216;49.544;8.442;2022-10-16T00:15:26;10.95;;;7.35;;
74687;SDS011;63216;49.544;8.442;2022-10-16T00:17:51;12.30;;;7.95;;
74687;SDS011;63216;49.544;8.442;2022-10-16T00:20:17;9.95;;;7.32;;
74687;SDS011;63216;49.544;8.442;2022-10-16T00:22:42;11.95;;;7.82;;
74687;SDS011;63216;49.544;8.442;2022-10-16T00:25:07;12.35;;;8.25;;
74687;SDS011;63216;49.544;8.442;2022-10-16T00:27:33;11.45;;;7.47;;
74687;SDS011;63216;49.544;8.442;2022-10-16T00:29:59;10.93;;;7.38;;
74687;SDS011;63216;49.544;8.442;2022-10-16T00:32:24;11.60;;;7.18;;
74687;SDS011;63216;49.544;8.442;2022-10-16T00:34:50;11.77;;;7.95;;
74687;SDS011;63216;49.544;8.442;2022-10-16T00:37:16;10.07;;;7.53;;
74687;SDS011;63216;49.544;8.442;2022-10-16T00:39:41;10.93;;;8.05;;
74687;SDS011;63216;49.544;8.442;2022-10-16T00:42:08;9.05;;;6.65;;
74687;SDS011;63216;49.544;8.442;2022-10-16T00:47:19;10.95;;;7.10;;
74687;SDS011;63216;49.544;8.442;2022-10-16T00:49:50;9.63;;;7.38;;
74687;SDS011;63216;49.544;8.442;2022-10-16T00:52:18;12.32;;;7.95;;
74687;SDS011;63216;49.544;8.442;2022-10-16T00:54:44;10.90;;;7.78;;
74687;SDS011;63216;49.544;8.442;2022-10-16T00:57:11;11.70;;;7.70;;
74687;SDS011;63216;49.544;8.442;2022-10-16T00:59:37;10.70;;;6.90;;
74687;SDS011;63216;49.544;8.442;2022-10-16T01:02:05;13.98;;;7.78;;
74687;SDS011;63216;49.544;8.442;2022-10-16T01:04:51;9.32;;;7.05;;
74687;SDS011;63216;49.544;8.442;2022-10-16T01:12:41;8.20;;;6.72;;
74687;SDS011;63216;49.544;8.442;2022-10-16T01:20:47;9.63;;;7.13;;
74687;SDS011;63216;49.544;8.442;2022-10-16T01:29:09;7.65;;;6.53;;
74687;SDS011;63216;49.544;8.442;2022-10-16T01:31:56;8.85;;;7.25;;
74687;SDS011;63216;49.544;8.442;2022-10-16T01:34:38;9.70;;;6.90;;
74687;SDS011;63216;49.544;8.442;2022-10-16T01:37:13;9.48;;;6.38;;
74687;SDS011;63216;49.544;8.442;2022-10-16T01:39:45;8.88;;;7.13;;
74687;SDS011;63216;49.544;8.442;2022-10-16T01:42:16;9.07;;;7.20;;
74687;SDS011;63216;49.544;8.442;2022-10-16T01:44:47;9.23;;;6.95;;
74687;SDS011;63216;49.544;8.442;2022-10-16T01:47:14;9.18;;;7.20;;
74687;SDS011;63216;49.544;8.442;2022-10-16T01:49:42;9.02;;;7.20;;
74687;SDS011;63216;49.544;8.442;2022-10-16T01:52:11;8.85;;;6.50;;
74687;SDS011;63216;49.544;8.442;2022-10-16T01:54:42;10.65;;;7.18;;
74687;SDS011;63216;49.544;8.442;2022-10-16T01:57:11;8.57;;;6.28;;
74687;SDS011;63216;49.544;8.442;2022-10-16T01:59:41;8.13;;;7.03;;
74687;SDS011;63216;49.544;8.442;2022-10-16T02:02:10;9.27;;;7.00;;
74687;SDS011;63216;49.544;8.442;2022-10-16T02:04:39;10.07;;;7.47;;
74687;SDS011;63216;49.544;8.442;2022-10-16T02:07:09;9.00;;;7.18;;
74687;SDS011;63216;49.544;8.442;2022-10-16T02:09:35;9.40;;;7.00;;
74687;SDS011;63216;49.544;8.442;2022-10-16T02:12:13;9.52;;;6.72;;
74687;SDS011;63216;49.544;8.442;2022-10-16T02:14:41;8.13;;;6.43;;
74687;SDS011;63216;49.544;8.442;2022-10-16T02:17:13;8.88;;;6.35;;
74687;SDS011;63216;49.544;8.442;2022-10-16T02:19:41;9.00;;;6.97;;
74687;SDS011;63216;49.544;8.442;2022-10-16T02:22:09;9.60;;;6.78;;
74687;SDS011;63216;49.544;8.442;2022-10-16T02:30:29;9.15;;;6.50;;
74687;SDS011;63216;49.544;8.442;2022-10-16T02:33:00;9.18;;;7.35;;
74687;SDS011;63216;49.544;8.442;2022-10-16T02:35:28;9.60;;;6.88;;
74687;SDS011;63216;49.544;8.442;2022-10-16T02:37:55;8.50;;;6.70;;
74687;SDS011;63216;49.544;8.442;2022-10-16T02:40:22;9.43;;;7.10;;
74687;SDS011;63216;49.544;8.442;2022-10-16T02:42:52;8.60;;;6.30;;
74687;SDS011;63216;49.544;8.442;2022-10-16T02:45:18;8.27;;;6.45;;
74687;SDS011;63216;49.544;8.442;2022-10-16T02:47:44;8.75;;;6.93;;
74687;SDS011;63216;49.544;8.442;2022-10-16T02:50:09;8.80;;;6.40;;
74687;SDS011;63216;49.544;8.442;2022-10-16T02:52:35;7.50;;;6.40;;
74687;SDS011;63216;49.544;8.442;2022-10-16T02:55:00;7.53;;;6.22;;
74687;SDS011;63216;49.544;8.442;2022-10-16T02:57:26;11.05;;;6.32;;
74687;SDS011;63216;49.544;8.442;2022-10-16T02:59:51;7.00;;;6.30;;
74687;SDS011;63216;49.544;8.442;2022-10-16T03:02:17;8.88;;;6.50;;
74687;SDS011;63216;49.544;8.442;2022-10-16T03:04:42;8.35;;;6.55;;
74687;SDS011;63216;49.544;8.442;2022-10-16T03:07:07;9.43;;;6.75;;
74687;SDS011;63216;49.544;8.442;2022-10-16T03:09:33;8.18;;;6.57;;
74687;SDS011;63216;49.544;8.442;2022-10-16T03:11:58;7.95;;;6.45;;
74687;SDS011;63216;49.544;8.442;2022-10-16T03:14:24;8.55;;;6.93;;
74687;SDS011;63216;49.544;8.442;2022-10-16T03:16:49;7.15;;;5.95;;
74687;SDS011;63216;49.544;8.442;2022-10-16T03:19:15;10.05;;;6.82;;
74687;SDS011;63216;49.544;8.442;2022-10-16T03:21:41;8.65;;;6.45;;
74687;SDS011;63216;49.544;8.442;2022-10-16T03:24:07;8.13;;;6.65;;
74687;SDS011;63216;49.544;8.442;2022-10-16T03:26:32;6.78;;;6.07;;
74687;SDS011;63216;49.544;8.442;2022-10-16T03:28:57;7.60;;;6.32;;
74687;SDS011;63216;49.544;8.442;2022-10-16T03:31:23;8.10;;;6.50;;
74687;SDS011;63216;49.544;8.442;2022-10-16T03:33:48;7.03;;;5.93;;
74687;SDS011;63216;49.544;8.442;2022-10-16T03:36:13;8.82;;;6.60;;
74687;SDS011;63216;49.544;8.442;2022-10-16T03:38:39;7.53;;;6.43;;
74687;SDS011;63216;49.544;8.442;2022-10-16T03:41:04;7.63;;;6.55;;
74687;SDS011;63216;49.544;8.442;2022-10-16T03:43:33;7.78;;;6.72;;
74687;SDS011;63216;49.544;8.442;2022-10-16T03:45:58;7.65;;;6.35;;
74687;SDS011;63216;49.544;8.442;2022-10-16T03:48:24;8.60;;;6.78;;
74687;SDS011;63216;49.544;8.442;2022-10-16T03:50:49;8.23;;;6.60;;
74687;SDS011;63216;49.544;8.442;2022-10-16T03:53:16;7.10;;;6.30;;
74687;SDS011;63216;49.544;8.442;2022-10-16T03:55:42;10.25;;;6.72;;
74687;SDS011;63216;49.544;8.442;2022-10-16T03:58:08;8.23;;;6.78;;
74687;SDS011;63216;49.544;8.442;2022-10-16T04:00:33;8.40;;;6.95;;
74687;SDS011;63216;49.544;8.442;2022-10-16T04:02:59;7.50;;;6.65;;
74687;SDS011;63216;49.544;8.442;2022-10-16T04:05:25;9.75;;;6.93;;
74687;SDS011;63216;49.544;8.442;2022-10-16T04:07:50;7.30;;;6.40;;
74687;SDS011;63216;49.544;8.442;2022-10-16T04:10:16;8.35;;;6.82;;
74687;SDS011;63216;49.544;8.442;2022-10-16T04:12:41;9.40;;;6.82;;
74687;SDS011;63216;49.544;8.442;2022-10-16T04:15:07;7.05;;;6.15;;
74687;SDS011;63216;49.544;8.442;2022-10-16T04:17:33;8.18;;;6.25;;
74687;SDS011;63216;49.544;8.442;2022-10-16T04:19:58;7.57;;;5.90;;
74687;SDS011;63216;49.544;8.442;2022-10-16T04:22:23;6.97;;;5.85;;
74687;SDS011;63216;49.544;8.442;2022-10-16T04:24:48;7.40;;;6.10;;
74687;SDS011;63216;49.544;8.442;2022-10-16T04:27:14;7.18;;;6.03;;
74687;SDS011;63216;49.544;8.442;2022-10-16T04:29:39;6.97;;;6.07;;
74687;SDS011;63216;49.544;8.442;2022-10-16T04:32:04;7.13;;;6.35;;
74687;SDS011;63216;49.544;8.442;2022-10-16T04:34:30;7.30;;;6.10;;
74687;SDS011;63216;49.544;8.442;2022-10-16T04:36:55;7.78;;;6.00;;
74687;SDS011;63216;49.544;8.442;2022-10-16T04:39:20;9.68;;;6.20;;
74687;SDS011;63216;49.544;8.442;2022-10-16T04:41:46;9.77;;;6.40;;
74687;SDS011;63216;49.544;8.442;2022-10-16T04:44:11;7.30;;;6.38;;
74687;SDS011;63216;49.544;8.442;2022-10-16T04:46:37;6.82;;;5.28;;
74687;SDS011;63216;49.544;8.442;2022-10-16T04:49:02;8.38;;;6.95;;
74687;SDS011;63216;49.544;8.442;2022-10-16T04:51:27;7.80;;;5.70;;
74687;SDS011;63216;49.544;8.442;2022-10-16T04:53:53;6.95;;;6.25;;
74687;SDS011;63216;49.544;8.442;2022-10-16T04:56:19;6.80;;;5.35;;
74687;SDS011;63216;49.544;8.442;2022-10-16T04:58:46;9.93;;;6.63;;
74687;SDS011;63216;49.544;8.442;2022-10-16T05:01:11;6.75;;;5.68;;
74687;SDS011;63216;49.544;8.442;2022-10-16T05:03:37;7.25;;;5.85;;
74687;SDS011;63216;49.544;8.442;2022-10-16T05:06:04;7.60;;;5.88;;
74687;SDS011;63216;49.544;8.442;2022-10-16T05:08:30;6.38;;;5.72;;
74687;SDS011;63216;49.544;8.442;2022-10-16T05:10:56;6.97;;;5.70;;
74687;SDS011;63216;49.544;8.442;2022-10-16T05:13:21;8.65;;;6.22;;
74687;SDS011;63216;49.544;8.442;2022-10-16T05:15:48;6.55;;;5.78;;
74687;SDS011;63216;49.544;8.442;2022-10-16T05:18:14;7.50;;;5.82;;
74687;SDS011;63216;49.544;8.442;2022-10-16T05:20:40;7.32;;;6.15;;
74687;SDS011;63216;49.544;8.442;2022-10-16T05:23:06;7.40;;;5.93;;
74687;SDS011;63216;49.544;8.442;2022-10-16T05:25:31;7.60;;;5.85;;
74687;SDS011;63216;49.544;8.442;2022-10-16T05:27:56;6.80;;;5.97;;
74687;SDS011;63216;49.544;8.442;2022-10-16T05:30:22;9.88;;;6.18;;
74687;SDS011;63216;49.544;8.442;2022-10-16T05:32:48;7.05;;;5.65;;
74687;SDS011;63216;49.544;8.442;2022-10-16T05:35:14;7.55;;;5.60;;
74687;SDS011;63216;49.544;8.442;2022-10-16T05:37:40;7.32;;;5.90;;
74687;SDS011;63216;49.544;8.442;2022-10-16T05:40:06;6.35;;;5.60;;
74687;SDS011;63216;49.544;8.442;2022-10-16T05:42:31;6.90;;;5.63;;
74687;SDS011;63216;49.544;8.442;2022-10-16T05:44:57;7.50;;;6.47;;
74687;SDS011;63216;49.544;8.442;2022-10-16T05:47:22;7.43;;;6.13;;
74687;SDS011;63216;49.544;8.442;2022-10-16T05:49:47;8.85;;;6.28;;
74687;SDS011;63216;49.544;8.442;2022-10-16T05:52:13;5.93;;;5.10;;
74687;SDS011;63216;49.544;8.442;2022-10-16T05:54:38;6.47;;;5.78;;
74687;SDS011;63216;49.544;8.442;2022-10-16T05:57:03;7.57;;;6.13;;
74687;SDS011;63216;49.544;8.442;2022-10-16T05:59:30;7.43;;;5.85;;
74687;SDS011;63216;49.544;8.442;2022-10-16T06:01:56;7.18;;;5.85;;
74687;SDS011;63216;49.544;8.442;2022-10-16T06:04:21;7.60;;;5.90;;
74687;SDS011;63216;49.544;8.442;2022-10-16T06:06:47;7.35;;;6.05;;
74687;SDS011;63216;49.544;8.442;2022-10-16T06:09:12;6.05;;;5.35;;
74687;SDS011;63216;49.544;8.442;2022-10-16T06:11:37;7.65;;;6.05;;
74687;SDS011;63216;49.544;8.442;2022-10-16T06:14:03;7.32;;;6.25;;
74687;SDS011;63216;49.544;8.442;2022-10-16T06:16:31;6.80;;;5.60;;
74687;SDS011;63216;49.544;8.442;2022-10-16T06:18:57;7.00;;;5.45;;
74687;SDS011;63216;49.544;8.442;2022-10-16T06:21:24;7.68;;;5.75;;
74687;SDS011;63216;49.544;8.442;2022-10-16T06:23:50;6.93;;;5.88;;
74687;SDS011;63216;49.544;8.442;2022-10-16T06:26:18;6.18;;;5.57;;
74687;SDS011;63216;49.544;8.442;2022-10-16T06:28:46;9.77;;;6.22;;
74687;SDS011;63216;49.544;8.442;2022-10-16T06:31:12;7.32;;;5.70;;
74687;SDS011;63216;49.544;8.442;2022-10-16T06:33:39;6.25;;;5.60;;
74687;SDS011;63216;49.544;8.442;2022-10-16T06:36:12;8.13;;;5.43;;
74687;SDS011;63216;49.544;8.442;2022-10-16T06:38:39;6.72;;;5.25;;
74687;SDS011;63216;49.544;8.442;2022-10-16T06:41:05;6.00;;;5.40;;
74687;SDS011;63216;49.544;8.442;2022-10-16T06:43:32;6.97;;;5.40;;
74687;SDS011;63216;49.544;8.442;2022-10-16T06:45:58;7.35;;;5.50;;
74687;SDS011;63216;49.544;8.442;2022-10-16T06:48:25;9.70;;;5.68;;
74687;SDS011;63216;49.544;8.442;2022-10-16T06:53:26;6.78;;;5.38;;
74687;SDS011;63216;49.544;8.442;2022-10-16T06:55:52;19.70;;;5.57;;
74687;SDS011;63216;49.544;8.442;2022-10-16T06:58:18;7.60;;;5.13;;
74687;SDS011;63216;49.544;8.442;2022-10-16T07:00:44;9.65;;;5.22;;
74687;SDS011;63216;49.544;8.442;2022-10-16T07:03:09;8.50;;;6.05;;
74687;SDS011;63216;49.544;8.442;2022-10-16T07:05:41;8.75;;;6.13;;
74687;SDS011;63216;49.544;8.442;2022-10-16T07:08:07;8.32;;;5.72;;
74687;SDS011;63216;49.544;8.442;2022-10-16T07:10:33;12.00;;;6.03;;
74687;SDS011;63216;49.544;8.442;2022-10-16T07:12:59;8.25;;;5.68;;
74687;SDS011;63216;49.544;8.442;2022-10-16T07:15:24;7.20;;;5.85;;
74687;SDS011;63216;49.544;8.442;2022-10-16T07:17:51;7.55;;;5.63;;
74687;SDS011;63216;49.544;8.442;2022-10-16T07:20:17;9.23;;;6.00;;
74687;SDS011;63216;49.544;8.442;2022-10-16T07:22:42;8.52;;;6.15;;
74687;SDS011;63216;49.544;8.442;2022-10-16T07:25:08;6.00;;;5.32;;
74687;SDS011;63216;49.544;8.442;2022-10-16T07:27:33;11.40;;;5.85;;
74687;SDS011;63216;49.544;8.442;2022-10-16T07:29:59;9.02;;;5.65;;
74687;SDS011;63216;49.544;8.442;2022-10-16T07:32:24;6.70;;;5.40;;
74687;SDS011;63216;49.544;8.442;2022-10-16T07:34:50;12.25;;;6.45;;
74687;SDS011;63216;49.544;8.442;2022-10-16T07:37:16;8.05;;;5.53;;
74687;SDS011;63216;49.544;8.442;2022-10-16T07:39:42;7.18;;;5.88;;
74687;SDS011;63216;49.544;8.442;2022-10-16T07:42:07;7.25;;;5.53;;
74687;SDS011;63216;49.544;8.442;2022-10-16T07:44:32;6.90;;;5.57;;
74687;SDS011;63216;49.544;8.442;2022-10-16T07:46:58;8.95;;;5.68;;
74687;SDS011;63216;49.544;8.442;2022-10-16T07:49:23;10.00;;;5.50;;
74687;SDS011;63216;49.544;8.442;2022-10-16T07:51:49;8.82;;;5.90;;
74687;SDS011;63216;49.544;8.442;2022-10-16T07:54:14;7.90;;;6.25;;
74687;SDS011;63216;49.544;8.442;2022-10-16T07:56:40;7.63;;;5.55;;
74687;SDS011;63216;49.544;8.442;2022-10-16T07:59:05;6.20;;;5.30;;
74687;SDS011;63216;49.544;8.442;2022-10-16T08:01:30;7.78;;;5.22;;
74687;SDS011;63216;49.544;8.442;2022-10-16T08:03:56;7.95;;;5.47;;
74687;SDS011;63216;49.544;8.442;2022-10-16T08:06:21;8.77;;;5.43;;
74687;SDS011;63216;49.544;8.442;2022-10-16T08:08:47;9.18;;;5.28;;
74687;SDS011;63216;49.544;8.442;2022-10-16T08:11:13;7.75;;;5.18;;
74687;SDS011;63216;49.544;8.442;2022-10-16T08:13:40;7.32;;;5.18;;
74687;SDS011;63216;49.544;8.442;2022-10-16T08:16:05;7.78;;;6.07;;
74687;SDS011;63216;49.544;8.442;2022-10-16T08:18:33;8.65;;;5.07;;
74687;SDS011;63216;49.544;8.442;2022-10-16T08:21:08;8.15;;;5.28;;
74687;SDS011;63216;49.544;8.442;2022-10-16T08:26:05;6.40;;;5.53;;
74687;SDS011;63216;49.544;8.442;2022-10-16T08:28:31;7.70;;;5.75;;
74687;SDS011;63216;49.544;8.442;2022-10-16T08:31:04;6.68;;;5.07;;
74687;SDS011;63216;49.544;8.442;2022-10-16T08:33:31;6.35;;;4.75;;
74687;SDS011;63216;49.544;8.442;2022-10-16T08:35:56;6.65;;;5.13;;
74687;SDS011;63216;49.544;8.442;2022-10-16T08:38:21;9.10;;;5.03;;
74687;SDS011;63216;49.544;8.442;2022-10-16T08:40:47;6.50;;;4.95;;
74687;SDS011;63216;49.544;8.442;2022-10-16T08:43:21;7.57;;;5.85;;
74687;SDS011;63216;49.544;8.442;2022-10-16T08:51:08;6.80;;;5.20;;
74687;SDS011;63216;49.544;8.442;2022-10-16T08:53:43;10.68;;;6.30;;
74687;SDS011;63216;49.544;8.442;2022-10-16T08:56:11;8.43;;;4.80;;
74687;SDS011;63216;49.544;8.442;2022-10-16T08:58:37;8.93;;;5.60;;
74687;SDS011;63216;49.544;8.442;2022-10-16T09:01:03;7.97;;;5.07;;
74687;SDS011;63216;49.544;8.442;2022-10-16T09:09:05;8.68;;;5.35;;
74687;SDS011;63216;49.544;8.442;2022-10-16T09:12:04;6.60;;;5.07;;
74687;SDS011;63216;49.544;8.442;2022-10-16T09:15:20;11.32;;;6.13;;
74687;SDS011;63216;49.544;8.442;2022-10-16T09:22:37;10.02;;;6.10;;
74687;SDS011;63216;49.544;8.442;2022-10-16T09:25:11;9.35;;;5.80;;
74687;SDS011;63216;49.544;8.442;2022-10-16T09:27:39;10.55;;;6.43;;
74687;SDS011;63216;49.544;8.442;2022-10-16T09:30:19;11.05;;;5.38;;
74687;SDS011;63216;49.544;8.442;2022-10-16T09:32:45;11.35;;;5.50;;
74687;SDS011;63216;49.544;8.442;2022-10-16T09:35:19;8.27;;;5.65;;
74687;SDS011;63216;49.544;8.442;2022-10-16T09:37:48;11.48;;;5.63;;
74687;SDS011;63216;49.544;8.442;2022-10-16T09:40:31;11.38;;;5.57;;
74687;SDS011;63216;49.544;8.442;2022-10-16T09:45:43;9.13;;;4.88;;
74687;SDS011;63216;49.544;8.442;2022-10-16T09:48:17;10.05;;;5.82;;
74687;SDS011;63216;49.544;8.442;2022-10-16T09:50:54;8.77;;;6.40;;
74687;SDS011;63216;49.544;8.442;2022-10-16T09:53:20;9.38;;;5.85;;
74687;SDS011;63216;49.544;8.442;2022-10-16T09:55:51;9.50;;;5.95;;
74687;SDS011;63216;49.544;8.442;2022-10-16T10:00:52;9.40;;;5.13;;
74687;SDS011;63216;49.544;8.442;2022-10-16T10:03:37;15.13;;;5.90;;
74687;SDS011;63216;49.544;8.442;2022-10-16T10:06:06;10.20;;;6.30;;
74687;SDS011;63216;49.544;8.442;2022-10-16T10:08:52;9.30;;;5.63;;
74687;SDS011;63216;49.544;8.442;2022-10-16T10:11:38;9.15;;;5.53;;
74687;SDS011;63216;49.544;8.442;2022-10-16T10:14:06;8.40;;;5.30;;
74687;SDS011;63216;49.544;8.442;2022-10-16T10:16:41;11.30;;;6.03;;
74687;SDS011;63216;49.544;8.442;2022-10-16T10:19:26;9.60;;;5.75;;
74687;SDS011;63216;49.544;8.442;2022-10-16T10:21:52;6.90;;;5.40;;
74687;SDS011;63216;49.544;8.442;2022-10-16T10:24:18;8.05;;;5.70;;
74687;SDS011;63216;49.544;8.442;2022-10-16T10:26:47;10.00;;;6.25;;
74687;SDS011;63216;49.544;8.442;2022-10-16T10:29:31;8.30;;;5.70;;
74687;SDS011;63216;49.544;8.442;2022-10-16T10:32:30;10.82;;;6.63;;
74687;SDS011;63216;49.544;8.442;2022-10-16T10:35:16;13.63;;;6.55;;
74687;SDS011;63216;49.544;8.442;2022-10-16T10:40:51;9.65;;;5.53;;
74687;SDS011;63216;49.544;8.442;2022-10-16T10:45:52;11.32;;;6.43;;
74687;SDS011;63216;49.544;8.442;2022-10-16T10:51:12;10.45;;;5.57;;
74687;SDS011;63216;49.544;8.442;2022-10-16T11:04:32;12.82;;;6.10;;
74687;SDS011;63216;49.544;8.442;2022-10-16T11:07:13;6.50;;;5.22;;
74687;SDS011;63216;49.544;8.442;2022-10-16T11:09:46;11.27;;;5.53;;
74687;SDS011;63216;49.544;8.442;2022-10-16T11:15:30;6.78;;;5.35;;
74687;SDS011;63216;49.544;8.442;2022-10-16T11:20:34;9.27;;;5.40;;
74687;SDS011;63216;49.544;8.442;2022-10-16T11:23:07;7.60;;;5.10;;
74687;SDS011;63216;49.544;8.442;2022-10-16T11:25:34;6.65;;;4.88;;
74687;SDS011;63216;49.544;8.442;2022-10-16T11:36:25;10.50;;;5.33;;
74687;SDS011;63216;49.544;8.442;2022-10-16T11:38:53;6.15;;;5.10;;
74687;SDS011;63216;49.544;8.442;2022-10-16T11:41:27;8.52;;;5.32;;
74687;SDS011;63216;49.544;8.442;2022-10-16T11:46:35;8.35;;;5.45;;
74687;SDS011;63216;49.544;8.442;2022-10-16T11:49:14;7.23;;;5.10;;
74687;SDS011;63216;49.544;8.442;2022-10-16T11:54:32;7.53;;;4.95;;
74687;SDS011;63216;49.544;8.442;2022-10-16T11:57:23;6.05;;;5.15;;
74687;SDS011;63216;49.544;8.442;2022-10-16T12:02:31;7.05;;;4.70;;
74687;SDS011;63216;49.544;8.442;2022-10-16T12:07:39;8.68;;;5.00;;
74687;SDS011;63216;49.544;8.442;2022-10-16T12:10:23;6.03;;;5.07;;
74687;SDS011;63216;49.544;8.442;2022-10-16T12:12:52;8.05;;;4.50;;
74687;SDS011;63216;49.544;8.442;2022-10-16T12:15:23;6.72;;;4.88;;
74687;SDS011;63216;49.544;8.442;2022-10-16T12:17:50;5.93;;;5.03;;
74687;SDS011;63216;49.544;8.442;2022-10-16T12:22:52;6.50;;;5.17;;
74687;SDS011;63216;49.544;8.442;2022-10-16T12:25:41;7.88;;;5.00;;
74687;SDS011;63216;49.544;8.442;2022-10-16T12:30:39;7.03;;;5.03;;
74687;SDS011;63216;49.544;8.442;2022-10-16T12:33:15;7.85;;;5.07;;
74687;SDS011;63216;49.544;8.442;2022-10-16T12:36:03;8.50;;;5.10;;
74687;SDS011;63216;49.544;8.442;2022-10-16T12:38:47;6.25;;;5.50;;
74687;SDS011;63216;49.544;8.442;2022-10-16T12:41:24;6.10;;;4.97;;
74687;SDS011;63216;49.544;8.442;2022-10-16T12:43:53;7.90;;;4.90;;
74687;SDS011;63216;49.544;8.442;2022-10-16T12:48:44;6.40;;;4.50;;
74687;SDS011;63216;49.544;8.442;2022-10-16T12:51:19;6.18;;;4.75;;
74687;SDS011;63216;49.544;8.442;2022-10-16T12:54:01;6.30;;;5.00;;
74687;SDS011;63216;49.544;8.442;2022-10-16T12:59:37;9.30;;;4.90;;
74687;SDS011;63216;49.544;8.442;2022-10-16T13:07:56;12.45;;;4.93;;
74687;SDS011;63216;49.544;8.442;2022-10-16T13:10:40;8.77;;;4.95;;
74687;SDS011;63216;49.544;8.442;2022-10-16T13:23:55;7.80;;;5.70;;
74687;SDS011;63216;49.544;8.442;2022-10-16T13:26:37;6.20;;;5.35;;
74687;SDS011;63216;49.544;8.442;2022-10-16T13:29:04;8.32;;;5.78;;
74687;SDS011;63216;49.544;8.442;2022-10-16T13:31:30;7.43;;;5.00;;
74687;SDS011;63216;49.544;8.442;2022-10-16T13:33:57;6.10;;;4.90;;
74687;SDS011;63216;49.544;8.442;2022-10-16T13:36:25;7.63;;;4.35;;
74687;SDS011;63216;49.544;8.442;2022-10-16T13:39:12;6.47;;;4.53;;
74687;SDS011;63216;49.544;8.442;2022-10-16T13:41:39;7.25;;;4.88;;
74687;SDS011;63216;49.544;8.442;2022-10-16T13:44:08;9.02;;;5.32;;
74687;SDS011;63216;49.544;8.442;2022-10-16T13:46:44;8.65;;;4.65;;
74687;SDS011;63216;49.544;8.442;2022-10-16T13:49:16;9.32;;;5.13;;
74687;SDS011;63216;49.544;8.442;2022-10-16T13:51:53;9.93;;;4.88;;
74687;SDS011;63216;49.544;8.442;2022-10-16T13:54:23;8.85;;;5.47;;
74687;SDS011;63216;49.544;8.442;2022-10-16T13:56:50;10.85;;;6.15;;
74687;SDS011;63216;49.544;8.442;2022-10-16T13:59:26;11.95;;;5.82;;
74687;SDS011;63216;49.544;8.442;2022-10-16T14:01:58;10.63;;;5.25;;
74687;SDS011;63216;49.544;8.442;2022-10-16T14:04:34;9.82;;;5.32;;
74687;SDS011;63216;49.544;8.442;2022-10-16T14:07:03;11.95;;;5.50;;
74687;SDS011;63216;49.544;8.442;2022-10-16T14:09:29;10.00;;;5.35;;
74687;SDS011;63216;49.544;8.442;2022-10-16T14:12:00;9.23;;;4.93;;
74687;SDS011;63216;49.544;8.442;2022-10-16T14:14:29;13.10;;;5.15;;
74687;SDS011;63216;49.544;8.442;2022-10-16T14:17:19;6.97;;;4.93;;
74687;SDS011;63216;49.544;8.442;2022-10-16T14:19:48;9.60;;;5.30;;
74687;SDS011;63216;49.544;8.442;2022-10-16T14:22:25;13.07;;;5.13;;
74687;SDS011;63216;49.544;8.442;2022-10-16T14:24:54;14.23;;;6.18;;
74687;SDS011;63216;49.544;8.442;2022-10-16T14:30:11;9.60;;;5.53;;
74687;SDS011;63216;49.544;8.442;2022-10-16T14:32:52;11.68;;;5.80;;
74687;SDS011;63216;49.544;8.442;2022-10-16T14:35:37;12.02;;;5.57;;
74687;SDS011;63216;49.544;8.442;2022-10-16T14:38:05;10.63;;;5.57;;
74687;SDS011;63216;49.544;8.442;2022-10-16T14:40:46;22.80;;;6.10;;
74687;SDS011;63216;49.544;8.442;2022-10-16T14:43:28;14.77;;;6.00;;
74687;SDS011;63216;49.544;8.442;2022-10-16T14:46:03;12.23;;;5.88;;
74687;SDS011;63216;49.544;8.442;2022-10-16T14:48:34;17.85;;;6.30;;
74687;SDS011;63216;49.544;8.442;2022-10-16T14:50:59;24.75;;;5.97;;
74687;SDS011;63216;49.544;8.442;2022-10-16T14:53:25;14.07;;;5.63;;
74687;SDS011;63216;49.544;8.442;2022-10-16T14:55:50;11.18;;;5.63;;
74687;SDS011;63216;49.544;8.442;2022-10-16T14:58:16;12.00;;;5.78;;
74687;SDS011;63216;49.544;8.442;2022-10-16T15:00:44;16.17;;;5.50;;
74687;SDS011;63216;49.544;8.442;2022-10-16T15:03:10;12.07;;;5.88;;
74687;SDS011;63216;49.544;8.442;2022-10-16T15:05:35;16.10;;;5.88;;
74687;SDS011;63216;49.544;8.442;2022-10-16T15:08:01;14.68;;;6.00;;
74687;SDS011;63216;49.544;8.442;2022-10-16T15:10:27;11.40;;;6.20;;
74687;SDS011;63216;49.544;8.442;2022-10-16T15:12:54;19.30;;;6.18;;
74687;SDS011;63216;49.544;8.442;2022-10-16T15:17:47;9.32;;;4.80;;
74687;SDS011;63216;49.544;8.442;2022-10-16T15:20:22;15.20;;;6.43;;
74687;SDS011;63216;49.544;8.442;2022-10-16T15:22:48;10.32;;;5.03;;
74687;SDS011;63216;49.544;8.442;2022-10-16T15:25:37;14.43;;;6.00;;
74687;SDS011;63216;49.544;8.442;2022-10-16T15:28:02;17.90;;;6.15;;
74687;SDS011;63216;49.544;8.442;2022-10-16T15:30:28;12.50;;;5.35;;
74687;SDS011;63216;49.544;8.442;2022-10-16T15:32:54;9.70;;;5.15;;
74687;SDS011;63216;49.544;8.442;2022-10-16T15:35:20;13.65;;;6.18;;
74687;SDS011;63216;49.544;8.442;2022-10-16T15:37:46;10.50;;;6.07;;
74687;SDS011;63216;49.544;8.442;2022-10-16T15:40:12;12.77;;;5.63;;
74687;SDS011;63216;49.544;8.442;2022-10-16T15:42:38;10.27;;;5.80;;
74687;SDS011;63216;49.544;8.442;2022-10-16T15:45:04;10.00;;;4.72;;
74687;SDS011;63216;49.544;8.442;2022-10-16T15:47:31;8.48;;;5.03;;
74687;SDS011;63216;49.544;8.442;2022-10-16T15:49:57;13.80;;;6.18;;
74687;SDS011;63216;49.544;8.442;2022-10-16T15:52:22;11.40;;;4.93;;
74687;SDS011;63216;49.544;8.442;2022-10-16T15:54:48;10.05;;;6.05;;
74687;SDS011;63216;49.544;8.442;2022-10-16T15:57:13;7.45;;;5.18;;
74687;SDS011;63216;49.544;8.442;2022-10-16T15:59:38;8.18;;;5.13;;
74687;SDS011;63216;49.544;8.442;2022-10-16T16:02:04;10.80;;;4.95;;
74687;SDS011;63216;49.544;8.442;2022-10-16T16:04:30;8.75;;;4.95;;
74687;SDS011;63216;49.544;8.442;2022-10-16T16:06:55;7.82;;;5.15;;
74687;SDS011;63216;49.544;8.442;2022-10-16T16:09:21;6.78;;;4.93;;
74687;SDS011;63216;49.544;8.442;2022-10-16T16:11:46;10.02;;;5.03;;
74687;SDS011;63216;49.544;8.442;2022-10-16T16:14:12;11.00;;;5.07;;
74687;SDS011;63216;49.544;8.442;2022-10-16T16:16:38;9.38;;;5.53;;
74687;SDS011;63216;49.544;8.442;2022-10-16T16:19:04;10.15;;;5.20;;
74687;SDS011;63216;49.544;8.442;2022-10-16T16:21:32;9.10;;;5.07;;
74687;SDS011;63216;49.544;8.442;2022-10-16T16:23:57;14.38;;;5.53;;
74687;SDS011;63216;49.544;8.442;2022-10-16T16:26:24;8.30;;;5.13;;
74687;SDS011;63216;49.544;8.442;2022-10-16T16:28:59;10.10;;;4.78;;
74687;SDS011;63216;49.544;8.442;2022-10-16T16:31:25;11.68;;;5.28;;
74687;SDS011;63216;49.544;8.442;2022-10-16T16:33:52;19.58;;;6.47;;
74687;SDS011;63216;49.544;8.442;2022-10-16T16:36:18;31.13;;;17.92;;
74687;SDS011;63216;49.544;8.442;2022-10-16T16:38:44;126.63;;;92.43;;
74687;SDS011;63216;49.544;8.442;2022-10-16T16:41:20;306.02;;;224.52;;
74687;SDS011;63216;49.544;8.442;2022-10-16T16:43:47;722.35;;;555.10;;
74687;SDS011;63216;49.544;8.442;2022-10-16T16:46:13;720.10;;;563.58;;
74687;SDS011;63216;49.544;8.442;2022-10-16T16:48:39;697.58;;;555.00;;
74687;SDS011;63216;49.544;8.442;2022-10-16T16:51:06;687.60;;;550.90;;
74687;SDS011;63216;49.544;8.442;2022-10-16T16:53:40;690.17;;;547.78;;
74687;SDS011;63216;49.544;8.442;2022-10-16T16:56:06;681.33;;;544.88;;
74687;SDS011;63216;49.544;8.442;2022-10-16T16:58:32;665.50;;;542.33;;
74687;SDS011;63216;49.544;8.442;2022-10-16T17:00:58;655.20;;;533.42;;